TimeMDT,TemperatureF,Dew PointF,Humidity,Sea Level PressureIn,VisibilityMPH,Wind Direction,Wind SpeedMPH,Gust SpeedMPH,PrecipitationIn,Events,Conditions,WindDirDegrees,DateUTC
12:53 AM,55.9,37.0,49,30.07,10.0,East,9.2,-,N/A,,Mostly Cloudy,80,2013-05-09 06:53:00
1:53 AM,54.0,37.9,55,30.07,10.0,ESE,10.4,-,N/A,,Partly Cloudy,120,2013-05-09 07:53:00
2:53 AM,52.0,37.9,59,30.07,10.0,SE,8.1,-,N/A,,Partly Cloudy,140,2013-05-09 08:53:00
3:53 AM,42.1,37.9,85,30.10,10.0,NNW,5.8,-,N/A,,Clear,340,2013-05-09 09:53:00
4:53 AM,42.1,37.0,82,30.09,10.0,SSW,4.6,-,N/A,,Clear,200,2013-05-09 10:53:00
5:53 AM,44.1,37.0,76,30.09,10.0,SSW,9.2,-,N/A,,Clear,210,2013-05-09 11:53:00
6:53 AM,46.0,37.0,71,30.11,10.0,Calm,Calm,-,N/A,,Clear,0,2013-05-09 12:53:00
7:53 AM,48.0,39.9,74,30.14,10.0,SW,4.6,-,N/A,,Mostly Cloudy,230,2013-05-09 13:53:00
8:53 AM,57.0,39.9,53,30.11,10.0,SE,8.1,-,N/A,,Clear,140,2013-05-09 14:53:00
9:53 AM,62.1,41.0,46,30.09,10.0,East,8.1,-,N/A,,Clear,100,2013-05-09 15:53:00
10:53 AM,64.4,41.0,42,30.12,10.0,Calm,Calm,-,N/A,,Partly Cloudy,0,2013-05-09 16:53:00
11:53 AM,70.0,41.0,35,30.06,10.0,East,4.6,-,N/A,,Partly Cloudy,80,2013-05-09 17:53:00
12:53 PM,72.0,39.9,31,30.04,10.0,Variable,6.9,-,N/A,,Clear,0,2013-05-09 18:53:00
1:53 PM,73.4,37.4,27,30.09,10.0,Variable,5.8,-,N/A,,Clear,0,2013-05-09 19:53:00
2:53 PM,75.0,36.0,24,30.03,10.0,Variable,4.6,-,N/A,,Clear,0,2013-05-09 20:53:00
3:53 PM,75.0,37.0,25,30.04,10.0,Variable,3.5,-,N/A,,Scattered Clouds,0,2013-05-09 21:53:00
4:53 PM,73.9,36.0,25,30.03,10.0,ENE,4.6,-,N/A,,Mostly Cloudy,60,2013-05-09 22:53:00
5:53 PM,71.1,39.0,31,30.04,10.0,SSW,15.0,23.0,N/A,,Mostly Cloudy,200,2013-05-09 23:53:00
6:53 PM,69.1,39.0,33,30.03,10.0,SW,9.2,-,N/A,,Scattered Clouds,220,2013-05-10 00:53:00
7:53 PM,70.0,39.0,32,30.03,10.0,South,5.8,-,N/A,,Clear,170,2013-05-10 01:53:00
8:53 PM,63.0,39.0,41,30.04,10.0,SW,4.6,-,N/A,,Clear,220,2013-05-10 02:53:00
9:53 PM,55.9,39.0,53,30.06,10.0,SSW,5.8,-,N/A,,Clear,210,2013-05-10 03:53:00
10:53 PM,51.8,39.2,62,30.10,10.0,SSW,9.2,-,N/A,,Clear,200,2013-05-10 04:53:00
11:53 PM,48.9,39.0,69,30.07,10.0,SSW,10.4,-,N/A,,Clear,210,2013-05-10 05:53:00